Time;durP1;ratioP1;P1;durP2;ratioP2;P2;SDS_P1;SDS_P2;PMS_P1;PMS_P2;Temp;Humidity;BMP_temperature;BMP_pressure;BME280_temperature;BME280_humidity;BME280_pressure;Samples;Min_cycle;Max_cycle;Signal;HPM_P1;HPM_P2
2023/07/16 00:02:55;;;;;;;19.02;8.52;;;;;;;;;;10502005;28;20008;-73
2023/07/16 00:07:56;;;;;;;19.40;7.97;;;;;;;;;;10503516;28;20207;-73
2023/07/16 00:12:56;;;;;;;12.93;7.57;;;;;;;;;;10510403;28;20078;-75
2023/07/16 00:17:56;;;;;;;13.73;7.47;;;;;;;;;;10501672;28;20293;-73
2023/07/16 00:22:57;;;;;;;14.63;7.40;;;;;;;;;;10502748;28;20047;-72
2023/07/16 00:27:57;;;;;;;16.25;6.75;;;;;;;;;;10502703;28;20021;-74
2023/07/16 00:32:58;;;;;;;17.25;6.93;;;;;;;;;;10502501;28;20024;-72
2023/07/16 00:37:58;;;;;;;10.25;6.63;;;;;;;;;;10502899;28;20039;-73
2023/07/16 00:42:58;;;;;;;12.43;6.57;;;;;;;;;;10500872;28;20232;-72
2023/07/16 00:47:58;;;;;;;10.10;6.72;;;;;;;;;;10501528;28;20383;-72
2023/07/16 00:52:59;;;;;;;14.65;6.85;;;;;;;;;;10500441;28;20040;-71
2023/07/16 00:58:02;;;;;;;16.90;6.20;;;;;;;;;;10501562;28;20307;-71
2023/07/16 01:03:04;;;;;;;14.32;6.18;;;;;;;;;;10500093;28;20039;-72
2023/07/16 01:08:06;;;;;;;9.90;5.80;;;;;;;;;;10499970;28;20028;-72
2023/07/16 01:13:07;;;;;;;10.93;6.07;;;;;;;;;;10500040;28;20024;-72
2023/07/16 01:18:07;;;;;;;7.70;6.07;;;;;;;;;;10500486;28;20357;-73
2023/07/16 01:23:22;;;;;;;11.63;6.85;;;;;;;;;;10500266;28;20024;-73
2023/07/16 01:28:25;;;;;;;13.40;6.35;;;;;;;;;;10500110;28;20031;-73
2023/07/16 01:33:26;;;;;;;10.73;6.68;;;;;;;;;;10500649;28;20036;-73
2023/07/16 01:38:27;;;;;;;9.68;5.13;;;;;;;;;;10499932;28;20024;-72
2023/07/16 01:43:27;;;;;;;11.90;6.18;;;;;;;;;;10498270;28;20024;-73
2023/07/16 01:48:30;;;;;;;12.25;5.35;;;;;;;;;;10500228;28;20428;-73
2023/07/16 01:53:31;;;;;;;16.02;5.75;;;;;;;;;;10498392;28;20044;-73
2023/07/16 01:58:31;;;;;;;11.35;5.35;;;;;;;;;;10499814;28;20023;-72
2023/07/16 02:03:31;;;;;;;7.88;5.63;;;;;;;;;;10499292;28;20210;-73
2023/07/16 02:08:32;;;;;;;8.85;5.82;;;;;;;;;;10499285;28;20219;-73
2023/07/16 02:13:32;;;;;;;6.38;5.13;;;;;;;;;;10499333;28;20322;-72
2023/07/16 02:18:32;;;;;;;6.72;5.30;;;;;;;;;;10497996;28;20215;-74
2023/07/16 02:23:33;;;;;;;7.55;5.82;;;;;;;;;;10499255;28;20029;-74
2023/07/16 02:28:33;;;;;;;10.37;5.57;;;;;;;;;;10495202;28;20025;-72
2023/07/16 03:48:32;;;;;;;8.15;4.78;;;;;;;;;;10440351;28;20384;-72
2023/07/16 03:53:33;;;;;;;6.03;4.47;;;;;;;;;;10466284;28;20322;-72
2023/07/16 03:58:33;;;;;;;7.03;4.37;;;;;;;;;;10452145;28;20017;-71
2023/07/16 04:03:33;;;;;;;10.93;5.25;;;;;;;;;;10451629;28;20301;-71
2023/07/16 04:08:34;;;;;;;6.60;4.23;;;;;;;;;;10450576;28;20307;-72
2023/07/16 04:13:34;;;;;;;8.65;5.05;;;;;;;;;;10449310;28;20013;-73
2023/07/16 04:18:34;;;;;;;9.33;5.17;;;;;;;;;;10438254;28;20311;-71
2023/07/16 04:23:35;;;;;;;8.77;4.80;;;;;;;;;;10436507;28;20322;-71
2023/07/16 04:28:35;;;;;;;8.27;5.55;;;;;;;;;;10443890;28;20341;-72
2023/07/16 04:33:36;;;;;;;9.20;4.30;;;;;;;;;;10429889;28;20481;-72
2023/07/16 04:38:36;;;;;;;12.33;4.20;;;;;;;;;;10435534;28;20025;-72
2023/07/16 04:43:36;;;;;;;8.52;4.32;;;;;;;;;;10447385;28;20028;-72
2023/07/16 04:48:36;;;;;;;11.97;4.60;;;;;;;;;;10426671;28;20080;-72
2023/07/16 04:53:37;;;;;;;6.28;4.28;;;;;;;;;;10422339;28;20044;-72
2023/07/16 04:58:37;;;;;;;6.50;4.35;;;;;;;;;;10422440;28;20043;-72
2023/07/16 05:03:37;;;;;;;8.05;4.53;;;;;;;;;;10422110;28;20188;-71
2023/07/16 05:08:37;;;;;;;7.23;4.23;;;;;;;;;;10424290;28;20010;-72
2023/07/16 05:13:38;;;;;;;8.38;4.40;;;;;;;;;;10421883;28;20592;-71
2023/07/16 05:18:38;;;;;;;7.30;4.15;;;;;;;;;;10421666;28;20035;-71
2023/07/16 05:23:38;;;;;;;12.87;5.13;;;;;;;;;;10421119;28;20226;-72
2023/07/16 05:28:38;;;;;;;18.70;9.57;;;;;;;;;;10420900;28;20259;-71
2023/07/16 05:33:39;;;;;;;12.43;4.63;;;;;;;;;;10365454;28;20053;-72
2023/07/16 05:38:39;;;;;;;10.68;5.78;;;;;;;;;;10389417;28;20055;-72
2023/07/16 05:43:39;;;;;;;10.63;4.85;;;;;;;;;;10409540;28;20029;-72
2023/07/16 05:48:39;;;;;;;8.00;4.45;;;;;;;;;;10406491;28;20299;-72
2023/07/16 05:53:40;;;;;;;11.35;6.07;;;;;;;;;;10419017;28;20021;-71
2023/07/16 05:58:41;;;;;;;7.20;4.05;;;;;;;;;;10417594;28;20025;-72
2023/07/16 06:03:41;;;;;;;6.45;3.60;;;;;;;;;;10409850;28;20041;-71
2023/07/16 06:08:41;;;;;;;9.52;4.18;;;;;;;;;;10418166;28;20351;-72
2023/07/16 06:13:41;;;;;;;5.88;3.05;;;;;;;;;;10407606;28;20164;-72
2023/07/16 06:18:42;;;;;;;6.78;3.03;;;;;;;;;;10399778;28;20022;-69
2023/07/16 06:23:42;;;;;;;8.20;4.05;;;;;;;;;;10378175;28;20302;-77
2023/07/16 06:28:43;;;;;;;6.95;3.20;;;;;;;;;;10397629;28;20010;-75
2023/07/16 06:33:43;;;;;;;5.37;3.27;;;;;;;;;;10394977;28;20089;-76
2023/07/16 06:38:44;;;;;;;9.52;4.45;;;;;;;;;;10417251;28;20020;-75
2023/07/16 06:43:45;;;;;;;6.15;3.03;;;;;;;;;;10418425;28;20044;-76
2023/07/16 06:48:45;;;;;;;6.77;3.47;;;;;;;;;;10418040;28;20033;-76
2023/07/16 06:53:46;;;;;;;7.47;3.00;;;;;;;;;;10416744;28;20076;-76
2023/07/16 06:58:47;;;;;;;7.03;3.60;;;;;;;;;;10416008;28;20035;-76
2023/07/16 07:03:47;;;;;;;5.43;3.30;;;;;;;;;;10385233;28;20040;-76
2023/07/16 07:08:47;;;;;;;13.18;3.58;;;;;;;;;;10402434;28;20021;-76
2023/07/16 07:13:48;;;;;;;6.53;3.42;;;;;;;;;;10416035;28;20043;-75
2023/07/16 07:18:48;;;;;;;6.40;3.30;;;;;;;;;;10405094;28;20115;-76
2023/07/16 07:23:48;;;;;;;8.07;3.22;;;;;;;;;;10374855;28;20274;-75
2023/07/16 07:28:48;;;;;;;9.95;2.58;;;;;;;;;;10392858;28;20033;-75
2023/07/16 07:33:49;;;;;;;9.57;3.50;;;;;;;;;;10417031;28;20035;-76
2023/07/16 07:38:49;;;;;;;6.20;2.90;;;;;;;;;;10416559;28;20036;-75
2023/07/16 07:43:49;;;;;;;7.47;3.33;;;;;;;;;;10415972;28;20080;-77
2023/07/16 07:48:49;;;;;;;6.63;3.15;;;;;;;;;;10416803;28;20012;-75
2023/07/16 07:53:50;;;;;;;7.53;2.57;;;;;;;;;;10416813;28;20021;-75
2023/07/16 07:58:50;;;;;;;3.83;2.45;;;;;;;;;;10415207;28;20048;-75
2023/07/16 08:03:50;;;;;;;3.72;2.05;;;;;;;;;;10415968;28;20218;-76
2023/07/16 08:08:51;;;;;;;6.30;3.30;;;;;;;;;;10406815;28;20097;-76
2023/07/16 08:13:51;;;;;;;3.47;2.40;;;;;;;;;;10414780;28;20044;-75
2023/07/16 08:18:51;;;;;;;7.80;2.80;;;;;;;;;;10416128;28;20017;-76
2023/07/16 08:23:51;;;;;;;7.80;3.83;;;;;;;;;;10422129;28;20017;-76
2023/07/16 08:28:52;;;;;;;6.20;3.67;;;;;;;;;;10422251;28;20104;-76
2023/07/16 08:33:52;;;;;;;9.63;3.60;;;;;;;;;;10423507;28;20021;-75
2023/07/16 08:38:53;;;;;;;4.88;2.80;;;;;;;;;;10423436;28;20010;-76
2023/07/16 08:43:53;;;;;;;3.78;2.88;;;;;;;;;;10423270;28;20390;-75
2023/07/16 08:48:54;;;;;;;8.50;3.38;;;;;;;;;;10422701;28;20013;-76
2023/07/16 08:53:54;;;;;;;3.42;3.10;;;;;;;;;;10409001;28;20200;-75
2023/07/16 08:58:56;;;;;;;8.17;3.47;;;;;;;;;;10382851;28;20021;-76
2023/07/16 09:03:56;;;;;;;10.98;3.15;;;;;;;;;;10422526;28;20384;-75
2023/07/16 09:08:57;;;;;;;8.68;3.55;;;;;;;;;;10422356;28;20016;-75
2023/07/16 09:13:57;;;;;;;8.47;3.30;;;;;;;;;;10420975;28;20372;-75
2023/07/16 09:19:04;;;;;;;5.97;3.28;;;;;;;;;;10421693;28;20013;-75
2023/07/16 09:24:08;;;;;;;7.10;3.60;;;;;;;;;;10421951;28;20403;-75
2023/07/16 09:29:08;;;;;;;8.48;3.60;;;;;;;;;;10433111;28;20310;-76
2023/07/16 09:34:09;;;;;;;6.00;3.60;;;;;;;;;;10420686;28;20014;-74
2023/07/16 09:39:09;;;;;;;8.80;3.10;;;;;;;;;;10420621;28;20021;-75
2023/07/16 09:44:10;;;;;;;4.87;2.97;;;;;;;;;;10420810;28;20299;-74
2023/07/16 09:49:11;;;;;;;4.60;2.83;;;;;;;;;;10420500;28;20345;-75
2023/07/16 09:54:15;;;;;;;11.57;3.37;;;;;;;;;;10420393;28;20503;-75
2023/07/16 09:59:15;;;;;;;;;;;;;;;;;;10419341;28;20271;-75
2023/07/16 10:04:16;;;;;;;7.90;3.10;;;;;;;;;;10420440;28;19928;-75
2023/07/16 10:09:56;;;;;;;5.43;3.00;;;;;;;;;;10419709;28;20215;-74
2023/07/16 10:14:56;;;;;;;6.10;2.97;;;;;;;;;;10348225;28;20026;-75
2023/07/16 10:19:58;;;;;;;8.35;3.30;;;;;;;;;;10390222;28;20061;-74
2023/07/16 10:24:59;;;;;;;6.47;3.78;;;;;;;;;;10404828;28;20014;-75
2023/07/16 10:30:02;;;;;;;7.80;3.92;;;;;;;;;;10378268;28;20028;-75
2023/07/16 10:35:05;;;;;;;10.23;3.85;;;;;;;;;;10385846;28;20022;-75
2023/07/16 10:40:09;;;;;;;5.57;4.07;;;;;;;;;;10419777;28;20192;-76
2023/07/16 10:45:10;;;;;;;5.57;3.83;;;;;;;;;;10418422;28;20123;-75
2023/07/16 10:50:10;;;;;;;6.05;3.55;;;;;;;;;;10417330;28;20056;-75
2023/07/16 10:55:10;;;;;;;9.97;3.77;;;;;;;;;;10409240;28;20018;-76
2023/07/16 11:00:11;;;;;;;7.45;3.28;;;;;;;;;;10376503;28;20014;-74
2023/07/16 11:05:12;;;;;;;10.88;3.55;;;;;;;;;;10377161;28;20024;-76
2023/07/16 11:10:14;;;;;;;7.57;4.35;;;;;;;;;;10377223;28;20080;-75
2023/07/16 11:15:14;;;;;;;10.98;4.72;;;;;;;;;;10376826;28;20085;-75
2023/07/16 11:20:15;;;;;;;7.78;5.03;;;;;;;;;;10390058;28;20014;-76
2023/07/16 11:25:15;;;;;;;12.48;5.60;;;;;;;;;;10417569;28;20041;-75
2023/07/16 11:30:15;;;;;;;9.77;6.03;;;;;;;;;;10417228;28;20319;-75
2023/07/16 11:35:17;;;;;;;13.52;6.38;;;;;;;;;;10417237;28;20017;-75
2023/07/16 11:40:18;;;;;;;8.93;7.03;;;;;;;;;;10423636;28;20021;-75
2023/07/16 11:45:23;;;;;;;14.40;6.45;;;;;;;;;;10396443;28;20056;-75
2023/07/16 11:50:23;;;;;;;14.98;6.88;;;;;;;;;;10391359;28;20026;-75
2023/07/16 11:55:24;;;;;;;10.70;5.93;;;;;;;;;;10411815;28;20018;-75
2023/07/16 12:00:24;;;;;;;10.68;6.05;;;;;;;;;;10384423;28;20013;-75
2023/07/16 12:05:26;;;;;;;7.80;5.60;;;;;;;;;;10383960;28;20029;-76
2023/07/16 12:10:26;;;;;;;13.57;6.78;;;;;;;;;;10383610;28;20257;-76
2023/07/16 12:15:27;;;;;;;14.45;7.22;;;;;;;;;;10408262;28;20035;-76
2023/07/16 12:20:27;;;;;;;11.07;6.30;;;;;;;;;;10423572;28;20092;-75
2023/07/16 12:25:27;;;;;;;11.80;7.65;;;;;;;;;;10389561;28;20225;-75
2023/07/16 12:30:27;;;;;;;11.25;6.97;;;;;;;;;;10420514;28;20215;-75
2023/07/16 12:35:28;;;;;;;13.68;7.45;;;;;;;;;;10423031;28;20192;-75
2023/07/16 12:40:29;;;;;;;11.70;5.72;;;;;;;;;;10423343;28;20025;-76
2023/07/16 12:45:29;;;;;;;14.35;6.38;;;;;;;;;;10422903;28;20084;-75
2023/07/16 12:50:29;;;;;;;12.02;6.28;;;;;;;;;;10423053;28;20029;-75
2023/07/16 12:55:31;;;;;;;10.88;6.80;;;;;;;;;;10423365;28;20036;-76
2023/07/16 13:00:31;;;;;;;12.70;6.43;;;;;;;;;;10423291;28;20029;-75
2023/07/16 13:05:32;;;;;;;11.43;6.32;;;;;;;;;;10422757;28;20019;-75
2023/07/16 13:10:32;;;;;;;12.90;6.30;;;;;;;;;;10422273;28;20448;-74
2023/07/16 13:15:32;;;;;;;11.87;6.80;;;;;;;;;;10422457;28;20044;-76
2023/07/16 13:20:32;;;;;;;11.20;6.72;;;;;;;;;;10421737;28;20009;-76
2023/07/16 13:25:33;;;;;;;21.35;8.48;;;;;;;;;;10380062;28;20026;-76
2023/07/16 13:30:33;;;;;;;12.90;6.93;;;;;;;;;;10360132;28;20239;-75
2023/07/16 13:35:34;;;;;;;11.23;7.25;;;;;;;;;;10354626;28;20029;-75
2023/07/16 13:40:34;;;;;;;11.00;6.68;;;;;;;;;;10355289;28;20032;-76
2023/07/16 13:45:34;;;;;;;15.23;6.80;;;;;;;;;;10354504;28;20054;-75
2023/07/16 13:50:35;;;;;;;8.80;6.43;;;;;;;;;;10345046;28;20133;-75
2023/07/16 13:55:35;;;;;;;12.23;6.90;;;;;;;;;;10352419;28;20022;-75
2023/07/16 14:00:35;;;;;;;9.77;6.47;;;;;;;;;;10365756;28;20014;-79
2023/07/16 14:05:38;;;;;;;13.48;6.25;;;;;;;;;;10362316;28;20029;-82
2023/07/16 14:10:38;;;;;;;9.85;6.03;;;;;;;;;;10358321;28;20026;-84
2023/07/16 14:15:39;;;;;;;9.55;6.30;;;;;;;;;;10371313;28;20383;-82
2023/07/16 14:20:39;;;;;;;10.82;6.50;;;;;;;;;;10367238;28;20018;-83
2023/07/16 14:25:39;;;;;;;11.40;6.78;;;;;;;;;;10353999;28;20370;-84
2023/07/16 14:30:40;;;;;;;12.70;6.38;;;;;;;;;;10369557;28;20311;-83
2023/07/16 14:35:40;;;;;;;11.13;7.80;;;;;;;;;;10365159;28;20214;-73
2023/07/16 14:40:42;;;;;;;9.18;5.72;;;;;;;;;;10358619;28;20307;-74
2023/07/16 14:45:42;;;;;;;12.95;6.57;;;;;;;;;;10345998;28;20050;-74
2023/07/16 14:50:42;;;;;;;9.63;5.60;;;;;;;;;;10349089;28;20030;-72
2023/07/16 14:55:47;;;;;;;12.10;6.85;;;;;;;;;;10358043;28;20073;-72
2023/07/16 15:00:47;;;;;;;9.63;5.90;;;;;;;;;;10352384;28;20494;-72
2023/07/16 15:05:47;;;;;;;10.10;6.05;;;;;;;;;;10352886;28;20076;-73
2023/07/16 15:10:47;;;;;;;14.38;6.55;;;;;;;;;;10352551;28;20312;-72
2023/07/16 15:15:48;;;;;;;9.57;6.75;;;;;;;;;;10341479;28;20129;-73
2023/07/16 15:20:49;;;;;;;10.50;6.53;;;;;;;;;;10359882;28;20040;-73
2023/07/16 15:25:49;;;;;;;10.90;6.90;;;;;;;;;;10349164;28;20189;-73
2023/07/16 15:30:50;;;;;;;12.95;6.57;;;;;;;;;;10349359;28;20026;-74
2023/07/16 15:35:50;;;;;;;13.60;7.20;;;;;;;;;;10349562;28;20026;-74
2023/07/16 15:40:51;;;;;;;12.52;7.50;;;;;;;;;;10351730;28;20366;-74
2023/07/16 15:45:51;;;;;;;9.38;7.18;;;;;;;;;;10347308;28;20213;-74
2023/07/16 15:50:55;;;;;;;11.32;7.22;;;;;;;;;;10349954;28;20034;-74
2023/07/16 15:55:59;;;;;;;11.13;8.15;;;;;;;;;;10344838;28;20248;-74
2023/07/16 16:00:59;;;;;;;13.82;8.73;;;;;;;;;;10348269;28;20049;-74
2023/07/16 16:05:59;;;;;;;14.75;9.13;;;;;;;;;;10348880;28;20014;-74
2023/07/16 16:11:00;;;;;;;13.98;8.38;;;;;;;;;;10345791;28;20022;-75
2023/07/16 16:16:00;;;;;;;12.90;9.43;;;;;;;;;;10347433;28;20032;-74
2023/07/16 16:21:00;;;;;;;14.18;9.80;;;;;;;;;;10337310;28;20334;-73
2023/07/16 16:26:00;;;;;;;20.33;9.93;;;;;;;;;;10345090;28;20022;-68
2023/07/16 16:31:04;;;;;;;16.95;9.98;;;;;;;;;;10350776;28;20180;-74
2023/07/16 16:36:11;;;;;;;12.80;9.05;;;;;;;;;;10353939;28;20086;-68
2023/07/16 16:41:11;;;;;;;15.20;9.68;;;;;;;;;;10358258;28;20198;-76
2023/07/16 16:46:12;;;;;;;14.50;10.38;;;;;;;;;;10357201;28;20050;-74
2023/07/16 16:51:12;;;;;;;11.00;8.57;;;;;;;;;;10352661;28;20018;-74
2023/07/16 16:56:13;;;;;;;17.40;9.70;;;;;;;;;;10355439;28;20318;-76
2023/07/16 17:01:15;;;;;;;15.25;10.27;;;;;;;;;;10368634;28;20014;-77
2023/07/16 17:06:15;;;;;;;16.63;9.73;;;;;;;;;;10363304;28;20219;-77
2023/07/16 17:11:15;;;;;;;20.50;9.90;;;;;;;;;;10362551;28;20089;-77
2023/07/16 17:16:19;;;;;;;15.82;8.88;;;;;;;;;;10353110;28;20374;-75
2023/07/16 17:21:20;;;;;;;18.80;9.27;;;;;;;;;;10365059;28;20018;-73
2023/07/16 17:26:20;;;;;;;17.93;9.33;;;;;;;;;;10344696;28;20306;-76
2023/07/16 17:31:20;;;;;;;15.32;9.60;;;;;;;;;;10352788;28;20458;-76
2023/07/16 17:36:20;;;;;;;15.95;8.75;;;;;;;;;;10356615;28;20034;-76
2023/07/16 17:41:21;;;;;;;19.83;9.88;;;;;;;;;;10355268;28;20591;-76
2023/07/16 17:46:21;;;;;;;16.20;9.75;;;;;;;;;;10358174;28;20220;-76
2023/07/16 17:51:24;;;;;;;14.32;9.10;;;;;;;;;;10349138;28;20050;-78
2023/07/16 17:56:24;;;;;;;15.43;9.77;;;;;;;;;;10350741;28;20026;-79
2023/07/16 18:01:26;;;;;;;17.85;10.50;;;;;;;;;;10345298;28;20038;-76
2023/07/16 18:06:26;;;;;;;20.48;10.60;;;;;;;;;;10353039;28;20652;-75
2023/07/16 18:11:27;;;;;;;17.30;9.80;;;;;;;;;;10361278;28;20030;-75
2023/07/16 18:16:28;;;;;;;17.95;9.90;;;;;;;;;;10352893;28;20029;-73
2023/07/16 18:21:29;;;;;;;13.43;9.95;;;;;;;;;;10366918;28;20458;-72
2023/07/16 18:26:30;;;;;;;17.40;10.60;;;;;;;;;;10364741;28;20083;-69
2023/07/16 18:31:30;;;;;;;14.77;10.77;;;;;;;;;;10362583;28;20033;-71
2023/07/16 18:36:30;;;;;;;17.33;9.70;;;;;;;;;;10364853;28;20034;-72
2023/07/16 18:41:31;;;;;;;21.20;10.82;;;;;;;;;;10364652;28;20052;-75
2023/07/16 18:46:33;;;;;;;16.48;10.15;;;;;;;;;;10361195;28;20053;-70
2023/07/16 18:51:33;;;;;;;18.98;10.35;;;;;;;;;;10366085;28;20026;-71
2023/07/16 18:56:34;;;;;;;17.92;10.77;;;;;;;;;;10364496;28;20021;-70
2023/07/16 19:01:34;;;;;;;14.65;10.85;;;;;;;;;;10364151;28;20018;-71
2023/07/16 19:06:34;;;;;;;20.73;11.30;;;;;;;;;;10361839;28;20018;-69
2023/07/16 19:11:35;;;;;;;20.93;11.60;;;;;;;;;;10366447;28;20052;-67
2023/07/16 19:16:35;;;;;;;18.23;11.10;;;;;;;;;;10365622;28;20029;-70
2023/07/16 19:21:35;;;;;;;16.23;10.40;;;;;;;;;;10367038;28;20014;-70
2023/07/16 19:26:36;;;;;;;16.83;10.43;;;;;;;;;;10361878;28;20093;-70
2023/07/16 19:31:36;;;;;;;15.63;10.45;;;;;;;;;;10361651;28;20067;-68
2023/07/16 19:36:36;;;;;;;14.55;10.27;;;;;;;;;;10363442;28;20124;-70
2023/07/16 19:41:36;;;;;;;15.68;10.35;;;;;;;;;;10361921;28;20085;-70
2023/07/16 19:46:37;;;;;;;14.50;11.07;;;;;;;;;;10361091;28;20065;-70
2023/07/16 19:51:37;;;;;;;15.98;11.05;;;;;;;;;;10365088;28;20025;-70
2023/07/16 19:56:37;;;;;;;18.88;10.82;;;;;;;;;;10362500;28;20022;-70
2023/07/16 20:01:37;;;;;;;16.40;10.85;;;;;;;;;;10364268;28;20130;-70
2023/07/16 20:06:38;;;;;;;15.15;10.65;;;;;;;;;;10368094;28;20049;-70
2023/07/16 20:11:38;;;;;;;18.60;10.95;;;;;;;;;;10362115;28;20303;-69
2023/07/16 20:16:39;;;;;;;18.10;10.05;;;;;;;;;;10361943;28;20030;-69
2023/07/16 20:21:39;;;;;;;21.23;10.90;;;;;;;;;;10370324;28;20326;-70
2023/07/16 20:26:40;;;;;;;16.20;10.57;;;;;;;;;;10371024;28;20025;-70
2023/07/16 20:31:40;;;;;;;17.05;9.40;;;;;;;;;;10369501;28;20033;-70
2023/07/16 20:36:42;;;;;;;13.45;10.68;;;;;;;;;;10372448;28;20034;-70
2023/07/16 20:41:43;;;;;;;15.15;9.88;;;;;;;;;;10373485;28;20037;-70
2023/07/16 20:46:43;;;;;;;20.13;10.90;;;;;;;;;;10369227;28;20121;-69
2023/07/16 20:51:43;;;;;;;15.23;10.43;;;;;;;;;;10369080;28;20025;-69
2023/07/16 20:56:43;;;;;;;15.60;10.60;;;;;;;;;;10366319;28;20083;-69
2023/07/16 21:01:44;;;;;;;15.55;10.52;;;;;;;;;;10371941;28;20029;-70
2023/07/16 21:06:44;;;;;;;17.45;10.68;;;;;;;;;;10369050;28;20022;-70
2023/07/16 21:11:45;;;;;;;15.73;10.90;;;;;;;;;;10365950;28;20030;-69
2023/07/16 21:16:45;;;;;;;17.65;10.70;;;;;;;;;;10370366;28;20049;-70
2023/07/16 21:21:46;;;;;;;19.33;10.90;;;;;;;;;;10365952;28;20021;-67
2023/07/16 21:26:46;;;;;;;18.80;11.02;;;;;;;;;;10365515;28;20037;-68
2023/07/16 21:31:47;;;;;;;16.30;11.32;;;;;;;;;;10367617;28;20037;-75
2023/07/16 21:36:47;;;;;;;15.07;10.23;;;;;;;;;;10375894;28;20572;-70
2023/07/16 21:41:47;;;;;;;13.70;11.05;;;;;;;;;;10378426;28;20010;-70
2023/07/16 21:46:47;;;;;;;19.88;10.70;;;;;;;;;;10382054;28;20409;-70
2023/07/16 21:51:48;;;;;;;18.38;12.55;;;;;;;;;;10397309;28;20037;-67
2023/07/16 21:56:48;;;;;;;20.65;11.27;;;;;;;;;;10395487;28;20254;-67
2023/07/16 22:01:48;;;;;;;16.67;12.10;;;;;;;;;;10409058;28;20311;-67
2023/07/16 22:06:49;;;;;;;25.20;10.98;;;;;;;;;;10412379;28;20090;-68
2023/07/16 22:11:50;;;;;;;16.85;12.65;;;;;;;;;;10412237;28;20029;-68
2023/07/16 22:16:52;;;;;;;15.95;11.80;;;;;;;;;;10412360;28;20109;-68
2023/07/16 22:21:52;;;;;;;18.08;12.63;;;;;;;;;;10423856;28;20226;-67
2023/07/16 22:26:53;;;;;;;14.55;11.43;;;;;;;;;;10411242;28;20156;-68
2023/07/16 22:31:53;;;;;;;15.93;12.68;;;;;;;;;;10411637;28;20061;-68
2023/07/16 22:36:53;;;;;;;21.30;12.35;;;;;;;;;;10398159;28;20304;-68
2023/07/16 22:41:53;;;;;;;14.13;11.30;;;;;;;;;;10415294;28;20043;-68
2023/07/16 22:46:54;;;;;;;19.90;13.00;;;;;;;;;;10416805;28;20099;-68
2023/07/16 22:51:54;;;;;;;23.35;13.82;;;;;;;;;;10417212;28;20500;-68
2023/07/16 22:56:54;;;;;;;16.23;12.18;;;;;;;;;;10416891;28;20245;-68
2023/07/16 23:01:54;;;;;;;19.60;11.70;;;;;;;;;;10412974;28;20030;-68
2023/07/16 23:06:57;;;;;;;16.20;12.85;;;;;;;;;;10375701;28;20026;-68
2023/07/16 23:11:58;;;;;;;18.83;11.40;;;;;;;;;;10398701;28;20270;-68
2023/07/16 23:16:58;;;;;;;19.58;12.50;;;;;;;;;;10414703;28;20047;-68
2023/07/16 23:21:58;;;;;;;16.52;12.52;;;;;;;;;;10375893;28;20033;-68
2023/07/16 23:26:58;;;;;;;20.53;13.80;;;;;;;;;;10405102;28;20056;-68
2023/07/16 23:31:59;;;;;;;20.63;12.98;;;;;;;;;;10415799;28;20181;-68
2023/07/16 23:36:59;;;;;;;18.65;12.55;;;;;;;;;;10414622;28;20117;-69
2023/07/16 23:42:00;;;;;;;18.38;13.40;;;;;;;;;;10415664;28;20056;-68
2023/07/16 23:47:00;;;;;;;18.33;12.45;;;;;;;;;;10415729;28;20057;-68
2023/07/16 23:52:00;;;;;;;20.88;12.88;;;;;;;;;;10419303;28;20025;-69
2023/07/16 23:57:01;;;;;;;18.10;12.50;;;;;;;;;;10400721;28;20030;-67
